PILOTS ONLINE: 410    ATC ONLINE: 92

NZWN

Wellington International Airport

Location

IATA WLG
City Wellington
Country  New Zealand
Latitude 41° 19' 37" S
Longitude 174° 48' 17" E
Elevation 41 ft
Type Large Airport

Map

Weather

METAR
2014/10/25 00:00
NZWN 250000Z AUTO 18007KT 9999 NCD 12/04 Q1023 BECMG FM0300 35010KT
TAF
2014/10/24 18:11
TAF NZWN 241705Z 2418/2518 18015G25KT 9999 SCT030 
      BECMG 2421/2423 20008KT 
      BECMG 2502/2504 35015G25KT 
      BECMG 2514/2516 35025G35KT

Runways

16/34 6352 ft / 148 ft

Outbound flights

Callsign Flying to Pilot ATD/STD ETA Aircraft

Inbound flights

Callsign Flying from Pilot ATD ETA Aircraft